EW0112 Galesville MA US current weather conditions

sailwx.info

Wind from 018 at 2 knots gusting 4

Air temperature 1.1° C
Dewpoint -3.4° C

Last reported at 2019-Dec-07 13:01 UTC.
Time now 2019-Dec-07 14:02 UTC

Location: N 38°51' W 076°32'.
View on Google Maps.

See reports from other nearby stations

  
Tides and Currents Weather Stations Pressure Air Temp Water Temp Dewpoint Dewpoint Depression Visibility Wind Speed Wind Dir Waves Ship Positions
date/time (UTC)wind fromknots sea level pressurealtimeterstation pressurevisibilityair tempwater tempwave heightnotes
2019-Dec-07 13:01 018 2 gusting 4 1.1
2019-Dec-07 12:45 012 2 gusting 3 0.6
2019-Dec-07 12:30 003 2 gusting 3 0.6
2019-Dec-07 12:15
2019-Dec-07 12:00
2019-Dec-07 11:45
2019-Dec-07 11:30
2019-Dec-07 11:15
2019-Dec-07 11:02
2019-Dec-07 10:46
2019-Dec-07 10:31
2019-Dec-07 10:18
2019-Dec-07 10:01
2019-Dec-07 09:46
2019-Dec-07 09:31
2019-Dec-07 09:15
2019-Dec-07 09:00
2019-Dec-07 08:45
2019-Dec-07 08:31
2019-Dec-07 08:15
2019-Dec-07 08:00
2019-Dec-07 07:32
2019-Dec-07 07:16
2019-Dec-07 07:01
2019-Dec-07 06:46
2019-Dec-07 06:30
2019-Dec-07 06:15
2019-Dec-07 06:00
2019-Dec-07 05:45
2019-Dec-07 05:30
2019-Dec-07 05:15
2019-Dec-07 05:00 029 9 gusting 14 7.8
2019-Dec-07 04:45 047 8 gusting 16 8.9
2019-Dec-07 04:30 035 13 gusting 23 9.4
2019-Dec-07 04:15 023 8 gusting 11 10.0
2019-Dec-07 04:00 022 6 gusting 7 10.0
2019-Dec-07 03:46 004 3 gusting 4 9.4
2019-Dec-07 03:30 013 1 gusting 2 9.4
2019-Dec-07 03:15 341 0 gusting 2 10.0
2019-Dec-07 03:00 334 3 gusting 5 10.0
2019-Dec-07 02:45 338 1 gusting 6 10.0
2019-Dec-07 02:30 348 5 gusting 11 10.0
2019-Dec-07 02:15 025 2 gusting 3 10.0
2019-Dec-07 02:00 332 0 gusting 1 10.0
2019-Dec-07 01:45 269 10.0
2019-Dec-07 01:30 304 1 gusting 5 10.0
2019-Dec-07 01:15 305 1 gusting 4 10.0
2019-Dec-07 01:00 329 10.6
2019-Dec-07 00:47 324 2 gusting 6 10.6
2019-Dec-07 00:32 344 2 gusting 4 10.6
2019-Dec-07 00:17 307 0 gusting 4 10.6
2019-Dec-07 00:02 334 2 gusting 4 10.6
2019-Dec-06 23:46 330 0 gusting 5 10.6
2019-Dec-06 23:32 269 2 gusting 6 10.6
2019-Dec-06 23:17 276 1 gusting 5 10.6
2019-Dec-06 23:01 262 0 gusting 4 11.1
2019-Dec-06 22:46 281 2 gusting 4 11.1
2019-Dec-06 22:31 277 11.1
2019-Dec-06 22:17 275 0 gusting 4 11.1
2019-Dec-06 22:02 278 4 gusting 10 11.7
2019-Dec-06 21:46 284 4 gusting 9 11.7
2019-Dec-06 21:31 282 1 gusting 7 11.7
2019-Dec-06 21:17 295 3 gusting 10 11.7
2019-Dec-06 21:02 267 1 gusting 7 12.2
2019-Dec-06 20:46 270 2 gusting 5 12.2
2019-Dec-06 20:32 316 4 gusting 6 12.2
2019-Dec-06 20:17 276 0 gusting 6 11.7
2019-Dec-06 20:01 284 5 gusting 10 11.7
2019-Dec-06 19:46 281 2 gusting 11 11.7
2019-Dec-06 19:31 255 4 gusting 13 11.7
2019-Dec-06 19:16 280 4 gusting 10 11.7
2019-Dec-06 19:01 273 4 gusting 9 11.7
2019-Dec-06 18:46 255 6 gusting 10 11.7
2019-Dec-06 18:31 276 6 gusting 13 11.7
2019-Dec-06 18:16 250 4 gusting 10 11.7
2019-Dec-06 18:01 287 2 gusting 9 11.7
2019-Dec-06 17:45 283 5 gusting 10 11.7
2019-Dec-06 17:31 260 2 gusting 5 11.1
2019-Dec-06 17:16 245 6 gusting 9 11.1
2019-Dec-06 17:00 284 1 gusting 7 10.6
2019-Dec-06 16:45 284 2 gusting 8 10.0
2019-Dec-06 16:31 243 2 gusting 7 9.4
2019-Dec-06 16:15 243 6 gusting 10 9.4
2019-Dec-06 16:00 232 4 gusting 11 9.4
2019-Dec-06 15:45 280 6 gusting 10 8.9
2019-Dec-06 15:30 224 3 gusting 7 8.9
2019-Dec-06 15:17 260 3 gusting 6 8.3
2019-Dec-06 15:02 217 3 gusting 10 7.8
2019-Dec-06 14:46 236 3 gusting 7 7.2
2019-Dec-06 14:32 246 3 gusting 8 6.7
2019-Dec-06 14:16 258 4 gusting 9 6.1
2019-Dec-06 14:01 228 3 gusting 9 6.1
2019-Dec-06 13:46 226 2 gusting 5 5.6
2019-Dec-06 13:31 226 1 gusting 5 4.4
2019-Dec-06 13:15 259 1 gusting 6 2.8
2019-Dec-06 13:00 287 1.7
2019-Dec-06 12:45 288 -0.0
2019-Dec-06 12:30
2019-Dec-06 12:15
2019-Dec-06 12:00
2019-Dec-06 11:46
2019-Dec-06 11:32
2019-Dec-06 11:16
2019-Dec-06 11:01
2019-Dec-06 10:46
2019-Dec-06 10:31
2019-Dec-06 10:16
2019-Dec-06 10:00
2019-Dec-06 09:46
2019-Dec-06 09:30
2019-Dec-06 09:15
2019-Dec-06 09:00
2019-Dec-06 08:45
2019-Dec-06 08:30
2019-Dec-06 08:17
2019-Dec-06 08:01
2019-Dec-06 07:48
2019-Dec-06 07:31
2019-Dec-06 07:16
2019-Dec-06 07:01
2019-Dec-06 06:46
2019-Dec-06 06:31
2019-Dec-06 06:15
2019-Dec-06 06:00
2019-Dec-06 05:45
2019-Dec-06 05:30
2019-Dec-06 05:15 304 -0.6
2019-Dec-06 05:02 304 -0.0
2019-Dec-06 05:00 305 -0.0
2019-Dec-06 04:47 304 -0.0
2019-Dec-06 04:31 305 -0.0
2019-Dec-06 04:19 305 -0.0
2019-Dec-06 04:02 305 -0.0
2019-Dec-06 03:46 304 -0.0
2019-Dec-06 03:32 305 -0.0
2019-Dec-06 03:16 305 -0.0
2019-Dec-06 03:01 305 -0.0
2019-Dec-06 02:46 305 0.6
2019-Dec-06 02:15 356 0.6
2019-Dec-06 02:01 356 1.7
2019-Dec-06 01:46 356 1.7
2019-Dec-06 01:30 356 2.2
2019-Dec-06 01:16 356 2.2
2019-Dec-06 01:00 356 2.8
2019-Dec-06 00:45 357 3.3
2019-Dec-06 00:30 356 3.9
2019-Dec-06 00:15 356 4.4
2019-Dec-06 00:00 321 5.0
2019-Dec-05 23:45 308 0 gusting 2 5.0
2019-Dec-05 23:30 271 5.6
2019-Dec-05 23:15 271 5.6
2019-Dec-05 23:00 330 2 gusting 5 6.1
2019-Dec-05 22:47 348 4 gusting 6 6.1
2019-Dec-05 22:31 340 6 gusting 15 6.7
2019-Dec-05 22:16 340 5 gusting 8 6.7
2019-Dec-05 22:01 343 6 gusting 12 7.2
2019-Dec-05 21:47 330 9 gusting 13 7.2
2019-Dec-05 21:31 335 4 gusting 9 7.2
2019-Dec-05 21:16 325 6 gusting 13 7.8
2019-Dec-05 21:01 308 6 gusting 13 7.8
2019-Dec-05 20:46 297 6 gusting 13 7.8
2019-Dec-05 20:31 346 8 gusting 13 7.8
2019-Dec-05 20:15 311 6 gusting 13 7.8
2019-Dec-05 20:01 319 6 gusting 15 7.8
2019-Dec-05 19:46 353 7 gusting 13 7.8
2019-Dec-05 19:30 329 8 gusting 18 7.2
2019-Dec-05 19:15 325 9 gusting 19 7.2
2019-Dec-05 19:01 013 11 gusting 18 7.2
2019-Dec-05 18:45 023 13 gusting 19 7.2
2019-Dec-05 18:31 018 12 gusting 20 7.2
2019-Dec-05 18:15 015 12 gusting 18 7.2
2019-Dec-05 18:00 345 12 gusting 19 6.7
2019-Dec-05 17:45 011 13 gusting 18 6.7
2019-Dec-05 17:30 321 10 gusting 19 6.7
2019-Dec-05 17:00 325 12 gusting 19 6.1
2019-Dec-05 16:45 008 7 gusting 15 6.1
2019-Dec-05 16:30 031 13 gusting 22 6.1
2019-Dec-05 16:15 355 14 gusting 20 6.1
2019-Dec-05 16:00 018 6 gusting 14 6.1
2019-Dec-05 15:45 318 4 gusting 12 6.1
2019-Dec-05 15:30 315 7 gusting 14 5.6
2019-Dec-05 15:15 327 8 gusting 13 5.6
2019-Dec-05 15:00 011 4 gusting 13 5.6
2019-Dec-05 14:47 354 6 gusting 13 5.6
2019-Dec-05 14:31 013 6 gusting 12 5.0
2019-Dec-05 14:17 302 3 gusting 13 5.0
2019-Dec-05 14:01 356 6 gusting 12 5.0